createdAt,value
2022-11-13T00:01:25.798Z,57.68
2022-11-13T00:04:11.272Z,57.57
2022-11-13T00:06:59.331Z,57.77
2022-11-13T00:09:45.094Z,57.83
2022-11-13T00:12:30.479Z,57.51
2022-11-13T00:15:16.236Z,57.77
2022-11-13T00:18:03.260Z,57.58
2022-11-13T00:20:48.426Z,57.81
2022-11-13T00:23:35.674Z,57.71
2022-11-13T00:26:24.738Z,57.34
2022-11-13T00:29:10.115Z,57.24
2022-11-13T00:31:55.467Z,57.55
2022-11-13T00:34:47.551Z,57.50
2022-11-13T00:37:34.145Z,57.78
2022-11-13T00:40:19.491Z,57.92
2022-11-13T00:43:04.787Z,57.72
2022-11-13T00:45:50.183Z,57.92
2022-11-13T00:48:36.495Z,57.84
2022-11-13T00:51:22.333Z,57.72
2022-11-13T00:54:07.690Z,57.72
2022-11-13T00:56:53.236Z,57.70
2022-11-13T00:59:38.552Z,57.56
2022-11-13T01:02:23.877Z,57.59
2022-11-13T01:05:09.266Z,57.59
2022-11-13T01:07:54.980Z,57.86
2022-11-13T01:10:47.596Z,57.68
2022-11-13T01:13:38.790Z,57.66
2022-11-13T01:16:27.297Z,57.65
2022-11-13T01:19:12.599Z,57.60
2022-11-13T01:21:57.868Z,57.58
2022-11-13T01:24:43.328Z,57.54
2022-11-13T01:27:28.549Z,57.51
2022-11-13T01:30:13.847Z,57.61
2022-11-13T01:32:58.999Z,57.94
2022-11-13T01:35:44.465Z,57.69
2022-11-13T01:38:34.313Z,57.82
2022-11-13T01:41:34.067Z,57.75
2022-11-13T01:44:20.751Z,57.72
2022-11-13T01:47:06.358Z,57.89
2022-11-13T01:49:56.549Z,58.16
2022-11-13T01:52:42.883Z,58.17
2022-11-13T01:55:28.924Z,58.25
2022-11-13T01:58:14.853Z,58.20
2022-11-13T02:01:00.571Z,58.09
2022-11-13T02:03:45.763Z,58.32
2022-11-13T02:06:44.307Z,58.16
2022-11-13T02:09:36.244Z,58.38
2022-11-13T02:12:35.110Z,58.20
2022-11-13T02:15:24.147Z,58.18
2022-11-13T02:18:11.132Z,58.30
2022-11-13T02:21:38.067Z,58.01
2022-11-13T02:24:32.737Z,58.37
2022-11-13T02:27:35.988Z,58.11
2022-11-13T02:30:32.080Z,58.43
2022-11-13T02:33:31.781Z,58.23
2022-11-13T02:36:18.556Z,58.31
2022-11-13T02:39:09.402Z,58.22
2022-11-13T02:41:54.908Z,57.95
2022-11-13T02:44:40.171Z,57.93
2022-11-13T02:47:25.325Z,58.10
2022-11-13T02:50:12.049Z,58.03
2022-11-13T02:52:57.460Z,57.86
2022-11-13T02:55:42.794Z,57.90
2022-11-13T02:58:28.402Z,58.08
2022-11-13T03:01:14.589Z,57.89
2022-11-13T03:04:01.081Z,57.99
2022-11-13T03:06:46.763Z,58.27
2022-11-13T03:09:32.044Z,58.11
2022-11-13T03:12:17.371Z,57.93
2022-11-13T03:15:02.783Z,58.00
2022-11-13T03:17:48.121Z,57.85
2022-11-13T03:20:36.342Z,58.10
2022-11-13T03:23:21.462Z,57.88
2022-11-13T03:26:10.507Z,57.95
2022-11-13T03:28:56.484Z,57.93
2022-11-13T03:31:41.777Z,57.97
2022-11-13T03:34:27.105Z,57.67
2022-11-13T03:37:12.235Z,57.85
2022-11-13T03:39:57.502Z,57.73
2022-11-13T03:42:42.736Z,57.66
2022-11-13T03:45:28.111Z,57.67
2022-11-13T03:48:15.903Z,57.81
2022-11-13T03:51:01.519Z,57.62
2022-11-13T03:53:46.828Z,57.17
2022-11-13T03:56:32.079Z,57.19
2022-11-13T03:59:17.379Z,57.05
2022-11-13T04:02:02.784Z,57.17
2022-11-13T04:04:48.075Z,56.87
2022-11-13T04:07:33.414Z,56.65
2022-11-13T04:10:18.791Z,56.84
2022-11-13T04:13:04.146Z,57.05
2022-11-13T04:15:49.528Z,57.11
2022-11-13T04:18:34.659Z,56.95
2022-11-13T04:21:20.124Z,56.99
2022-11-13T04:24:05.554Z,57.02
2022-11-13T04:26:50.908Z,56.96
2022-11-13T04:29:36.215Z,57.23
2022-11-13T04:32:21.548Z,57.04
2022-11-13T04:35:07.564Z,57.29
2022-11-13T04:37:53.877Z,57.13
2022-11-13T04:40:40.677Z,57.21
2022-11-13T04:43:26.293Z,57.55
2022-11-13T04:46:11.547Z,57.32
2022-11-13T04:48:56.900Z,57.33
2022-11-13T04:51:42.237Z,57.46
2022-11-13T04:54:28.869Z,57.26
2022-11-13T04:57:14.483Z,57.23
2022-11-13T04:59:59.704Z,57.26
2022-11-13T05:02:45.311Z,57.40
2022-11-13T05:05:30.532Z,57.04
2022-11-13T05:08:15.848Z,56.97
2022-11-13T05:11:01.738Z,57.04
2022-11-13T05:13:47.002Z,57.07
2022-11-13T05:16:32.485Z,57.07
2022-11-13T05:19:18.102Z,57.22
2022-11-13T05:22:04.706Z,57.47
2022-11-13T05:24:50.090Z,57.42
2022-11-13T05:27:35.351Z,57.33
2022-11-13T05:30:20.630Z,57.52
2022-11-13T05:33:05.842Z,57.33
2022-11-13T05:35:51.052Z,57.29
2022-11-13T05:38:36.882Z,57.42
2022-11-13T05:41:23.019Z,57.55
2022-11-13T05:44:08.302Z,57.41
2022-11-13T05:46:53.506Z,57.61
2022-11-13T05:49:38.731Z,57.80
2022-11-13T05:52:23.999Z,57.64
2022-11-13T05:55:09.528Z,57.70
2022-11-13T05:57:54.949Z,57.77
2022-11-13T06:00:40.235Z,57.55
2022-11-13T06:03:25.584Z,57.96
2022-11-13T06:06:17.287Z,57.81
2022-11-13T06:09:05.806Z,57.68
2022-11-13T06:11:51.291Z,57.85
2022-11-13T06:14:36.654Z,57.88
2022-11-13T06:17:21.882Z,57.87
2022-11-13T06:20:07.939Z,58.02
2022-11-13T06:22:53.422Z,57.87
2022-11-13T06:25:38.680Z,57.78
2022-11-13T06:28:24.006Z,57.90
2022-11-13T06:31:16.091Z,58.13
2022-11-13T06:34:02.221Z,58.01
2022-11-13T06:36:47.514Z,58.23
2022-11-13T06:39:32.829Z,57.96
2022-11-13T06:42:17.986Z,58.32
2022-11-13T06:45:03.753Z,58.17
2022-11-13T06:47:49.108Z,58.26
2022-11-13T06:50:34.382Z,58.08
2022-11-13T06:53:19.790Z,58.22
2022-11-13T06:56:06.700Z,58.26
2022-11-13T06:58:52.467Z,58.36
2022-11-13T07:01:37.995Z,58.20
2022-11-13T07:04:23.895Z,58.37
2022-11-13T07:07:09.251Z,58.44
2022-11-13T07:09:54.470Z,58.53
2022-11-13T07:12:39.753Z,58.62
2022-11-13T07:15:25.154Z,58.70
2022-11-13T07:18:10.486Z,58.57
2022-11-13T07:20:55.820Z,58.89
2022-11-13T07:23:43.316Z,58.67
2022-11-13T07:26:29.184Z,58.90
2022-11-13T07:29:15.707Z,58.62
2022-11-13T07:32:00.958Z,58.79
2022-11-13T07:34:46.392Z,58.60
2022-11-13T07:37:31.662Z,58.68
2022-11-13T07:40:17.194Z,58.60
2022-11-13T07:43:03.620Z,58.64
2022-11-13T07:45:54.467Z,58.85
2022-11-13T07:48:40.234Z,58.44
2022-11-13T07:51:25.836Z,58.51
2022-11-13T07:54:11.100Z,58.60
2022-11-13T07:56:56.525Z,58.33
2022-11-13T07:59:41.817Z,58.35
2022-11-13T08:02:27.156Z,58.67
2022-11-13T08:05:12.543Z,58.33
2022-11-13T08:07:57.968Z,58.56
2022-11-13T08:10:43.309Z,58.45
2022-11-13T08:13:28.535Z,58.37
2022-11-13T08:16:13.903Z,58.23
2022-11-13T08:18:59.242Z,58.36
2022-11-13T08:21:44.470Z,58.22
2022-11-13T08:24:29.962Z,58.41
2022-11-13T08:27:15.249Z,58.76
2022-11-13T08:30:01.216Z,58.41
2022-11-13T08:32:48.043Z,58.62
2022-11-13T08:35:33.531Z,58.54
2022-11-13T08:38:18.932Z,58.70
2022-11-13T08:41:09.404Z,58.49
2022-11-13T08:43:55.578Z,58.73
2022-11-13T08:46:40.999Z,58.94
2022-11-13T08:49:26.259Z,58.99
2022-11-13T08:52:11.607Z,59.25
2022-11-13T08:54:56.846Z,58.98
2022-11-13T08:57:42.276Z,58.96
2022-11-13T09:00:29.530Z,59.20
2022-11-13T09:03:15.196Z,59.30
2022-11-13T09:06:00.883Z,59.30
2022-11-13T09:08:46.273Z,59.24
2022-11-13T09:11:31.576Z,59.25
2022-11-13T09:14:16.934Z,59.46
2022-11-13T09:17:02.272Z,59.08
2022-11-13T09:19:47.825Z,59.22
2022-11-13T09:22:34.733Z,59.30
2022-11-13T09:25:19.883Z,59.59
2022-11-13T09:28:06.610Z,59.71
2022-11-13T09:30:51.982Z,59.61
2022-11-13T09:33:37.409Z,59.71
2022-11-13T09:36:22.892Z,60.07
2022-11-13T09:39:08.388Z,60.11
2022-11-13T09:41:59.730Z,60.08
2022-11-13T09:44:57.961Z,59.77
2022-11-13T09:47:45.787Z,59.81
2022-11-13T09:50:32.506Z,59.79
2022-11-13T09:53:18.311Z,59.80
2022-11-13T09:56:27.586Z,60.08
2022-11-13T09:59:45.459Z,59.90
2022-11-13T10:03:08.966Z,60.04
2022-11-13T10:06:14.526Z,60.24
2022-11-13T10:09:36.942Z,60.03
2022-11-13T10:12:22.411Z,60.11
2022-11-13T10:15:10.285Z,60.28
2022-11-13T10:18:34.861Z,60.21
2022-11-13T10:21:43.956Z,60.51
2022-11-13T10:24:42.965Z,60.54
2022-11-13T10:27:28.317Z,60.43
2022-11-13T10:30:18.985Z,60.42
2022-11-13T10:33:08.258Z,60.37
2022-11-13T10:36:31.113Z,59.98
2022-11-13T10:39:16.767Z,59.91
2022-11-13T10:42:02.271Z,60.15
2022-11-13T10:44:59.411Z,60.15
2022-11-13T10:48:04.287Z,60.35
2022-11-13T10:51:02.858Z,60.16
2022-11-13T10:53:48.641Z,60.25
2022-11-13T10:56:35.866Z,60.35
2022-11-13T10:59:21.184Z,60.62
2022-11-13T11:02:17.201Z,61.04
2022-11-13T11:05:20.163Z,60.94
2022-11-13T11:08:10.368Z,61.25
2022-11-13T11:11:21.081Z,61.25
2022-11-13T11:14:53.684Z,61.27
2022-11-13T11:17:59.143Z,61.39
2022-11-13T11:20:56.690Z,61.10
2022-11-13T11:23:56.799Z,61.13
2022-11-13T11:26:49.482Z,61.03
2022-11-13T11:29:58.907Z,61.11
2022-11-13T11:32:53.363Z,61.08
2022-11-13T11:35:54.031Z,60.58
2022-11-13T11:39:06.524Z,60.36
2022-11-13T11:42:21.372Z,60.31
2022-11-13T11:45:27.607Z,60.07
2022-11-13T11:48:26.178Z,60.30
2022-11-13T11:51:31.844Z,59.76
2022-11-13T11:55:01.695Z,59.85
2022-11-13T11:58:28.733Z,59.92
2022-11-13T12:01:37.091Z,59.78
2022-11-13T12:04:45.369Z,59.96
2022-11-13T12:08:03.129Z,59.99
2022-11-13T12:11:22.591Z,59.78
2022-11-13T12:14:31.618Z,60.29
2022-11-13T12:17:39.690Z,60.29
2022-11-13T12:21:07.048Z,60.55
2022-11-13T12:24:14.808Z,60.71
2022-11-13T12:27:22.423Z,60.73
2022-11-13T12:30:21.917Z,60.83
2022-11-13T12:33:33.313Z,60.79
2022-11-13T12:36:20.603Z,61.12
2022-11-13T12:39:15.038Z,61.21
2022-11-13T12:42:30.629Z,61.23
2022-11-13T12:45:44.679Z,61.55
2022-11-13T12:48:43.171Z,61.66
2022-11-13T12:51:40.208Z,61.30
2022-11-13T12:54:32.431Z,61.13
2022-11-13T12:57:25.841Z,61.25
2022-11-13T13:00:30.404Z,61.30
2022-11-13T13:03:40.674Z,61.09
2022-11-13T13:06:50.831Z,61.23
2022-11-13T13:09:46.843Z,61.64
2022-11-13T13:13:01.571Z,61.46
2022-11-13T13:16:02.737Z,61.50
2022-11-13T13:18:48.711Z,61.33
2022-11-13T13:21:43.949Z,61.52
2022-11-13T13:24:36.568Z,61.47
2022-11-13T13:27:28.411Z,61.36
2022-11-13T13:30:21.721Z,61.66
2022-11-13T13:33:39.965Z,61.87
2022-11-13T13:36:51.461Z,61.74
2022-11-13T13:40:38.752Z,61.69
2022-11-13T13:44:15.332Z,61.87
2022-11-13T13:47:00.709Z,62.14
2022-11-13T13:49:46.359Z,62.48
2022-11-13T13:52:35.091Z,62.24
2022-11-13T13:55:37.043Z,62.07
2022-11-13T13:58:31.224Z,62.31
2022-11-13T14:01:31.741Z,62.42
2022-11-13T14:04:23.195Z,62.49
2022-11-13T14:07:24.018Z,62.75
2022-11-13T14:10:13.058Z,62.74
2022-11-13T14:12:58.344Z,63.05
2022-11-13T14:15:43.683Z,63.50
2022-11-13T14:18:29.521Z,63.22
2022-11-13T14:21:21.996Z,63.50
2022-11-13T14:24:17.095Z,63.52
2022-11-13T14:27:09.261Z,63.63
2022-11-13T14:29:59.998Z,63.99
2022-11-13T14:32:47.411Z,63.90
2022-11-13T14:35:32.968Z,63.94
2022-11-13T14:38:25.766Z,63.91
2022-11-13T14:41:24.600Z,64.20
2022-11-13T14:44:13.106Z,64.25
2022-11-13T14:47:19.280Z,64.42
2022-11-13T14:50:24.132Z,64.41
2022-11-13T14:53:11.127Z,64.36
2022-11-13T14:56:09.056Z,64.42
2022-11-13T14:58:54.599Z,64.45
2022-11-13T15:01:40.232Z,64.21
2022-11-13T15:04:26.188Z,64.31
2022-11-13T15:07:30.783Z,64.28
2022-11-13T15:10:20.703Z,63.96
2022-11-13T15:13:18.118Z,64.21
2022-11-13T15:16:03.984Z,64.21
2022-11-13T15:18:53.435Z,64.17
2022-11-13T15:21:39.801Z,64.05
2022-11-13T15:24:25.006Z,64.15
2022-11-13T15:27:17.371Z,64.01
2022-11-13T15:30:03.445Z,64.17
2022-11-13T15:32:53.722Z,64.21
2022-11-13T15:35:39.003Z,63.67
2022-11-13T15:38:24.400Z,63.58
2022-11-13T15:41:19.378Z,63.51
2022-11-13T15:44:15.004Z,63.65
2022-11-13T15:47:00.623Z,63.90
2022-11-13T15:49:56.765Z,64.17
2022-11-13T15:52:53.189Z,64.23
2022-11-13T15:55:40.972Z,64.15
2022-11-13T15:58:30.488Z,64.10
2022-11-13T16:01:19.554Z,64.08
2022-11-13T16:04:05.923Z,64.11
2022-11-13T16:06:51.180Z,64.17
2022-11-13T16:09:37.035Z,64.23
2022-11-13T16:12:22.279Z,64.36
2022-11-13T16:15:08.562Z,64.34
2022-11-13T16:17:56.877Z,64.23
2022-11-13T16:20:42.199Z,64.22
2022-11-13T16:23:27.757Z,64.12
2022-11-13T16:26:19.298Z,63.87
2022-11-13T16:29:19.368Z,63.85
2022-11-13T16:32:05.179Z,63.89
2022-11-13T16:34:50.524Z,63.52
2022-11-13T16:37:35.906Z,63.52
2022-11-13T16:40:26.027Z,63.59
2022-11-13T16:43:12.908Z,63.43
2022-11-13T16:46:00.323Z,63.36
2022-11-13T16:48:45.674Z,63.33
2022-11-13T16:51:31.092Z,63.29
2022-11-13T16:54:16.320Z,62.95
2022-11-13T16:57:02.249Z,62.85
2022-11-13T16:59:47.426Z,62.76
2022-11-13T17:02:32.619Z,62.74
2022-11-13T17:05:19.347Z,62.54
2022-11-13T17:08:06.230Z,62.74
2022-11-13T17:10:59.501Z,62.52
2022-11-13T17:13:50.821Z,62.49
2022-11-13T17:16:36.371Z,62.46
2022-11-13T17:19:21.794Z,62.31
2022-11-13T17:22:07.554Z,62.26
2022-11-13T17:24:53.134Z,62.04
2022-11-13T17:27:38.420Z,61.93
2022-11-13T17:30:23.815Z,61.97
2022-11-13T17:33:09.282Z,61.79
2022-11-13T17:35:56.276Z,61.49
2022-11-13T17:38:41.873Z,61.27
2022-11-13T17:41:27.043Z,61.17
2022-11-13T17:44:12.344Z,61.31
2022-11-13T17:46:57.636Z,61.33
2022-11-13T17:49:42.948Z,61.46
2022-11-13T17:52:28.235Z,61.18
2022-11-13T17:55:14.047Z,60.88
2022-11-13T17:58:01.186Z,60.90
2022-11-13T18:00:46.753Z,60.38
2022-11-13T18:03:32.262Z,59.67
2022-11-13T18:06:20.109Z,59.09
2022-11-13T18:09:06.307Z,59.00
2022-11-13T18:11:51.620Z,59.24
2022-11-13T18:14:36.968Z,58.79
2022-11-13T18:17:23.442Z,58.74
2022-11-13T18:20:09.777Z,58.48
2022-11-13T18:22:56.129Z,58.09
2022-11-13T18:25:41.350Z,58.48
2022-11-13T18:28:26.805Z,58.25
2022-11-13T18:31:15.955Z,58.26
2022-11-13T18:34:04.123Z,58.51
2022-11-13T18:36:49.910Z,58.38
2022-11-13T18:39:35.494Z,58.60
2022-11-13T18:42:20.748Z,58.56
2022-11-13T18:45:07.091Z,58.33
2022-11-13T18:47:52.557Z,58.34
2022-11-13T18:50:37.910Z,58.11
2022-11-13T18:53:23.429Z,57.67
2022-11-13T18:56:13.574Z,57.83
2022-11-13T18:59:00.053Z,57.56
2022-11-13T19:01:45.575Z,57.55
2022-11-13T19:04:31.339Z,57.92
2022-11-13T19:07:16.956Z,58.05
2022-11-13T19:10:02.932Z,57.99
2022-11-13T19:12:48.551Z,58.12
2022-11-13T19:15:39.017Z,58.14
2022-11-13T19:18:24.668Z,57.91
2022-11-13T19:21:16.340Z,58.21
2022-11-13T19:24:02.589Z,58.34
2022-11-13T19:26:48.173Z,58.28
2022-11-13T19:29:33.565Z,58.39
2022-11-13T19:32:18.886Z,58.24
2022-11-13T19:35:04.655Z,58.52
2022-11-13T19:37:57.768Z,58.37
2022-11-13T19:40:51.069Z,58.41
2022-11-13T19:43:39.494Z,58.43
2022-11-13T19:46:25.276Z,58.59
2022-11-13T19:49:10.873Z,58.79
2022-11-13T19:51:56.303Z,58.48
2022-11-13T19:54:42.090Z,58.70
2022-11-13T19:57:27.485Z,58.47
2022-11-13T20:00:13.326Z,58.57
2022-11-13T20:02:58.492Z,58.41
2022-11-13T20:05:44.113Z,58.17
2022-11-13T20:08:30.099Z,58.56
2022-11-13T20:11:15.840Z,58.47
2022-11-13T20:14:01.113Z,58.31
2022-11-13T20:16:46.413Z,58.43
2022-11-13T20:19:31.677Z,58.49
2022-11-13T20:22:17.000Z,58.34
2022-11-13T20:25:02.449Z,58.38
2022-11-13T20:27:47.806Z,58.05
2022-11-13T20:30:33.775Z,58.09
2022-11-13T20:33:22.620Z,58.06
2022-11-13T20:36:09.506Z,58.13
2022-11-13T20:38:57.027Z,58.10
2022-11-13T20:41:42.384Z,58.20
2022-11-13T20:44:27.569Z,58.26
2022-11-13T20:47:12.991Z,58.47
2022-11-13T20:49:58.251Z,58.59
2022-11-13T20:52:44.436Z,58.69
2022-11-13T20:55:30.659Z,58.58
2022-11-13T20:58:16.071Z,58.70
2022-11-13T21:01:07.794Z,58.76
2022-11-13T21:03:53.419Z,58.74
2022-11-13T21:06:38.741Z,58.61
2022-11-13T21:09:24.506Z,58.70
2022-11-13T21:12:09.842Z,58.72
2022-11-13T21:14:55.183Z,58.69
2022-11-13T21:17:40.552Z,58.50
2022-11-13T21:20:25.715Z,58.90
2022-11-13T21:23:10.988Z,58.92
2022-11-13T21:26:01.466Z,59.09
2022-11-13T21:28:46.879Z,59.19
2022-11-13T21:31:32.159Z,59.25
2022-11-13T21:34:17.598Z,59.15
2022-11-13T21:37:02.891Z,59.41
2022-11-13T21:39:48.394Z,59.35
2022-11-13T21:42:33.755Z,59.38
2022-11-13T21:45:19.118Z,59.60
2022-11-13T21:48:04.435Z,59.52
2022-11-13T21:50:50.104Z,59.72
2022-11-13T21:53:35.911Z,59.75
2022-11-13T21:56:21.432Z,59.88
2022-11-13T21:59:07.058Z,59.94
2022-11-13T22:01:52.631Z,59.64
2022-11-13T22:04:37.864Z,59.58
2022-11-13T22:07:23.385Z,59.79
2022-11-13T22:10:08.839Z,59.80
2022-11-13T22:12:54.659Z,59.73
2022-11-13T22:15:40.539Z,59.63
2022-11-13T22:18:26.165Z,59.59
2022-11-13T22:21:14.153Z,59.58
2022-11-13T22:24:01.327Z,59.50
2022-11-13T22:26:47.793Z,59.55
2022-11-13T22:29:33.010Z,59.35
2022-11-13T22:32:18.257Z,59.34
2022-11-13T22:35:03.688Z,59.00
2022-11-13T22:37:49.040Z,59.28
2022-11-13T22:40:34.303Z,59.49
2022-11-13T22:43:19.787Z,59.50
2022-11-13T22:46:12.252Z,59.55
2022-11-13T22:49:01.568Z,59.62
2022-11-13T22:51:46.735Z,60.03
2022-11-13T22:54:32.110Z,59.90
2022-11-13T22:57:17.285Z,59.84
2022-11-13T23:00:04.855Z,59.88
2022-11-13T23:02:50.411Z,59.79
2022-11-13T23:05:36.275Z,59.71
2022-11-13T23:08:21.517Z,59.68
2022-11-13T23:11:39.791Z,59.56
2022-11-13T23:14:25.637Z,59.54
2022-11-13T23:17:11.068Z,59.64
2022-11-13T23:19:56.338Z,59.57
2022-11-13T23:22:41.654Z,59.86
2022-11-13T23:25:26.903Z,59.84
2022-11-13T23:28:12.185Z,59.74
2022-11-13T23:30:57.502Z,59.74
2022-11-13T23:33:42.788Z,59.79
2022-11-13T23:36:30.460Z,59.82
2022-11-13T23:39:16.185Z,60.13
2022-11-13T23:42:01.952Z,60.04
2022-11-13T23:44:47.846Z,60.23
2022-11-13T23:47:33.180Z,60.31
2022-11-13T23:50:18.679Z,60.32
2022-11-13T23:53:03.902Z,60.25
2022-11-13T23:55:49.275Z,60.54
2022-11-13T23:58:35.013Z,60.27
